createdAt,value
2018-09-20T00:01:25.290Z,10.70
2018-09-20T00:03:53.401Z,19.53
2018-09-20T00:06:21.324Z,12.63
2018-09-20T00:08:49.263Z,15.83
2018-09-20T00:11:17.388Z,15.77
2018-09-20T00:13:45.317Z,12.13
2018-09-20T00:16:13.279Z,12.87
2018-09-20T00:18:41.430Z,10.70
2018-09-20T00:21:09.366Z,17.33
2018-09-20T00:23:37.288Z,17.47
2018-09-20T00:26:05.788Z,10.73
2018-09-20T00:28:33.727Z,9.17
2018-09-20T00:31:01.646Z,8.80
2018-09-20T00:33:29.831Z,9.63
2018-09-20T00:35:57.752Z,12.90
2018-09-20T00:38:25.682Z,10.17
2018-09-20T00:40:53.791Z,7.73
2018-09-20T00:43:21.726Z,10.87
2018-09-20T00:45:49.878Z,9.03
2018-09-20T00:48:18.614Z,10.80
2018-09-20T00:50:46.560Z,12.47
2018-09-20T00:53:14.528Z,8.63
2018-09-20T00:55:42.471Z,8.83
2018-09-20T00:58:10.422Z,12.00
2018-09-20T01:00:38.369Z,9.50
2018-09-20T01:03:06.339Z,10.63
2018-09-20T01:06:03.918Z,7.40
2018-09-20T01:08:32.084Z,10.20
2018-09-20T01:11:00.025Z,6.73
2018-09-20T01:13:27.976Z,9.40
2018-09-20T01:15:56.196Z,7.87
2018-09-20T01:18:24.713Z,7.47
2018-09-20T01:20:52.943Z,8.30
2018-09-20T01:23:20.975Z,12.83
2018-09-20T01:25:48.945Z,12.33
2018-09-20T01:28:16.900Z,8.60
2018-09-20T01:30:44.913Z,5.83
2018-09-20T01:33:12.899Z,7.27
2018-09-20T01:35:40.982Z,8.73
2018-09-20T01:38:09.058Z,11.30
2018-09-20T01:40:37.011Z,10.60
2018-09-20T01:43:04.994Z,8.00
2018-09-20T01:45:35.939Z,9.93
2018-09-20T01:48:04.004Z,7.50
2018-09-20T01:50:32.265Z,7.17
2018-09-20T01:53:00.760Z,7.57
2018-09-20T01:55:28.734Z,7.10
2018-09-20T01:57:56.659Z,7.20
2018-09-20T02:00:24.882Z,6.73
2018-09-20T02:02:52.940Z,14.63
2018-09-20T02:05:20.915Z,8.33
2018-09-20T02:07:49.183Z,6.77
2018-09-20T02:10:17.263Z,7.07
2018-09-20T02:12:45.184Z,8.17
2018-09-20T02:15:13.405Z,9.53
2018-09-20T02:17:41.332Z,9.33
2018-09-20T02:20:09.431Z,8.00
2018-09-20T02:22:37.731Z,11.17
2018-09-20T02:25:06.008Z,7.83
2018-09-20T02:27:33.951Z,10.70
2018-09-20T02:30:02.251Z,10.50
2018-09-20T02:32:30.321Z,7.53
2018-09-20T02:34:58.314Z,7.33
2018-09-20T02:37:26.359Z,8.30
2018-09-20T02:39:54.309Z,6.20
2018-09-20T02:42:22.303Z,11.50
2018-09-20T02:44:50.586Z,10.43
2018-09-20T02:47:18.662Z,8.10
2018-09-20T02:49:46.832Z,6.80
2018-09-20T02:52:15.098Z,9.63
2018-09-20T02:54:43.170Z,7.30
2018-09-20T02:57:11.117Z,10.13
2018-09-20T02:59:39.450Z,6.87
2018-09-20T03:02:07.575Z,13.23
2018-09-20T03:04:35.681Z,8.83
2018-09-20T03:07:03.836Z,6.37
2018-09-20T03:09:31.807Z,9.20
2018-09-20T03:11:59.777Z,8.10
2018-09-20T03:14:27.954Z,15.23
2018-09-20T03:16:56.908Z,15.30
2018-09-20T03:19:24.928Z,11.97
2018-09-20T03:21:53.096Z,8.53
2018-09-20T03:24:21.110Z,11.60
2018-09-20T03:26:49.056Z,10.53
2018-09-20T03:29:17.325Z,12.93
2018-09-20T03:31:45.311Z,8.20
2018-09-20T03:34:13.260Z,9.67
2018-09-20T03:36:41.429Z,13.30
2018-09-20T03:39:10.625Z,9.90
2018-09-20T03:41:38.780Z,11.07
2018-09-20T03:44:06.964Z,13.47
2018-09-20T03:46:34.949Z,11.70
2018-09-20T03:49:03.403Z,12.53
2018-09-20T03:51:31.431Z,12.23
2018-09-20T03:53:59.483Z,14.67
2018-09-20T03:56:27.446Z,9.63
2018-09-20T03:58:56.500Z,15.37
2018-09-20T04:01:24.445Z,12.13
2018-09-20T04:03:52.747Z,26.53
2018-09-20T04:06:20.697Z,29.10
2018-09-20T04:08:48.657Z,16.80
2018-09-20T04:11:16.690Z,15.33
2018-09-20T04:13:44.771Z,19.43
2018-09-20T04:16:12.803Z,13.70
2018-09-20T04:18:41.243Z,17.80
2018-09-20T04:21:09.488Z,15.60
2018-09-20T04:23:37.436Z,17.13
2018-09-20T04:26:05.530Z,27.50
2018-09-20T04:28:33.595Z,17.87
2018-09-20T04:31:01.585Z,16.97
2018-09-20T04:33:32.503Z,21.23
2018-09-20T04:36:00.482Z,14.33
2018-09-20T04:38:28.491Z,19.87
2018-09-20T04:40:56.521Z,20.87
2018-09-20T04:43:24.455Z,22.43
2018-09-20T04:45:52.473Z,20.40
2018-09-20T04:48:20.740Z,19.20
2018-09-20T04:50:48.711Z,16.93
2018-09-20T04:53:16.768Z,14.20
2018-09-20T04:55:45.088Z,21.33
2018-09-20T04:58:13.007Z,18.07
2018-09-20T05:00:40.953Z,20.97
2018-09-20T05:03:09.108Z,20.53
2018-09-20T05:05:37.031Z,13.27
2018-09-20T05:08:05.210Z,19.43
2018-09-20T05:10:33.403Z,17.77
2018-09-20T05:13:01.503Z,13.03
2018-09-20T05:15:29.432Z,15.73
2018-09-20T05:17:57.414Z,30.07
2018-09-20T05:20:25.475Z,38.63
2018-09-20T05:22:53.432Z,39.83
2018-09-20T05:25:21.487Z,55.50
2018-09-20T05:27:49.479Z,43.80
2018-09-20T05:30:17.566Z,38.13
2018-09-20T05:32:45.845Z,47.40
2018-09-20T05:35:13.803Z,38.07
2018-09-20T05:37:41.874Z,37.20
2018-09-20T05:40:10.357Z,36.90
2018-09-20T05:42:38.814Z,36.10
2018-09-20T05:45:06.901Z,53.90
2018-09-20T05:47:35.293Z,47.70
2018-09-20T05:50:03.280Z,55.67
2018-09-20T05:52:31.911Z,40.63
2018-09-20T05:55:00.936Z,32.87
2018-09-20T05:57:29.155Z,40.50
2018-09-20T05:59:57.072Z,34.47
2018-09-20T06:02:25.660Z,41.33
2018-09-20T06:07:26.944Z,33.03
2018-09-20T06:09:54.923Z,27.57
2018-09-20T06:12:22.883Z,35.90
2018-09-20T06:14:51.150Z,28.67
2018-09-20T06:17:19.112Z,32.10
2018-09-20T06:19:47.046Z,26.37
2018-09-20T06:22:15.267Z,28.33
2018-09-20T06:24:43.212Z,28.10
2018-09-20T06:27:11.396Z,27.07
2018-09-20T06:29:39.551Z,25.80
2018-09-20T06:32:07.556Z,31.23
2018-09-20T06:34:35.525Z,24.40
2018-09-20T06:37:04.308Z,25.03
2018-09-20T06:39:32.367Z,23.20
2018-09-20T06:42:00.350Z,21.50
2018-09-20T06:44:28.626Z,20.00
2018-09-20T06:46:57.212Z,24.33
2018-09-20T06:49:25.308Z,21.40
2018-09-20T06:51:53.672Z,27.60
2018-09-20T06:54:21.618Z,19.10
2018-09-20T06:56:49.715Z,20.23
2018-09-20T06:59:17.880Z,24.53
2018-09-20T07:01:45.835Z,19.07
2018-09-20T07:04:13.828Z,21.77
2018-09-20T07:06:42.051Z,18.53
2018-09-20T07:09:12.027Z,17.23
2018-09-20T07:11:40.147Z,20.73
2018-09-20T07:14:08.763Z,27.33
2018-09-20T07:16:36.743Z,27.43
2018-09-20T07:19:04.896Z,31.87
2018-09-20T07:21:33.303Z,18.90
2018-09-20T07:24:02.450Z,26.20
2018-09-20T07:26:30.669Z,24.23
2018-09-20T07:28:58.861Z,29.30
2018-09-20T07:31:26.819Z,35.63
2018-09-20T07:33:54.999Z,28.50
2018-09-20T07:36:22.956Z,19.17
2018-09-20T07:38:51.175Z,21.53
2018-09-20T07:41:19.317Z,18.10
2018-09-20T07:43:47.495Z,14.27
2018-09-20T07:46:15.564Z,15.83
2018-09-20T07:48:43.840Z,21.60
2018-09-20T07:51:11.798Z,29.43
2018-09-20T07:53:39.780Z,13.63
2018-09-20T07:56:07.753Z,10.57
2018-09-20T07:58:35.712Z,14.47
2018-09-20T08:01:03.685Z,16.43
2018-09-20T08:03:31.701Z,14.37
2018-09-20T08:05:59.666Z,15.87
2018-09-20T08:08:27.611Z,9.77
2018-09-20T08:10:55.647Z,14.03
2018-09-20T08:13:23.645Z,10.70
2018-09-20T08:15:51.584Z,12.47
2018-09-20T08:18:19.572Z,25.50
2018-09-20T08:20:47.538Z,20.17
2018-09-20T08:23:15.614Z,27.70
2018-09-20T08:25:43.579Z,21.03
2018-09-20T08:28:11.621Z,20.23
2018-09-20T08:30:39.597Z,11.97
2018-09-20T08:33:07.804Z,10.53
2018-09-20T08:35:35.776Z,15.87
2018-09-20T08:38:03.913Z,16.97
2018-09-20T08:40:32.124Z,17.07
2018-09-20T08:43:00.093Z,12.17
2018-09-20T08:45:28.285Z,9.23
2018-09-20T08:47:56.385Z,9.47
2018-09-20T08:50:24.339Z,12.87
2018-09-20T08:52:52.699Z,15.53
2018-09-20T08:55:27.515Z,10.90
2018-09-20T08:57:56.494Z,13.23
2018-09-20T09:00:25.076Z,9.43
2018-09-20T09:02:53.077Z,10.20
2018-09-20T09:05:21.362Z,13.93
2018-09-20T09:07:49.359Z,13.50
2018-09-20T09:10:17.537Z,16.57
2018-09-20T09:12:45.765Z,10.77
2018-09-20T09:15:13.714Z,9.03
2018-09-20T09:17:41.705Z,22.00
2018-09-20T09:20:09.678Z,17.33
2018-09-20T09:22:37.650Z,7.67
2018-09-20T09:25:05.589Z,11.57
2018-09-20T09:27:33.535Z,19.87
2018-09-20T09:30:01.557Z,9.90
2018-09-20T09:32:29.486Z,6.70
2018-09-20T09:34:57.550Z,13.30
2018-09-20T09:37:25.664Z,12.53
2018-09-20T09:39:53.640Z,10.97
2018-09-20T09:42:21.579Z,10.83
2018-09-20T09:44:49.792Z,9.93
2018-09-20T09:47:18.061Z,20.87
2018-09-20T09:49:46.067Z,14.87
2018-09-20T09:52:14.045Z,16.77
2018-09-20T09:54:42.304Z,10.53
2018-09-20T09:57:10.285Z,10.10
2018-09-20T09:59:38.404Z,16.30
2018-09-20T10:02:06.658Z,11.07
2018-09-20T10:04:34.693Z,22.70
2018-09-20T10:07:02.934Z,16.13
2018-09-20T10:09:30.838Z,9.87
2018-09-20T10:12:02.467Z,12.97
2018-09-20T10:14:30.501Z,13.60
2018-09-20T10:16:58.502Z,12.10
2018-09-20T10:19:26.675Z,14.80
2018-09-20T10:21:54.625Z,14.47
2018-09-20T10:24:22.614Z,10.20
2018-09-20T10:26:51.104Z,13.90
2018-09-20T10:29:19.031Z,15.60
2018-09-20T10:31:47.007Z,10.77
2018-09-20T10:34:15.219Z,11.67
2018-09-20T10:36:43.148Z,14.70
2018-09-20T10:39:12.888Z,17.17
2018-09-20T10:41:41.372Z,9.13
2018-09-20T10:44:09.552Z,10.63
2018-09-20T10:46:37.507Z,59.20
2018-09-20T10:49:05.793Z,19.37
2018-09-20T10:51:34.069Z,27.03
2018-09-20T10:54:02.135Z,21.10
2018-09-20T10:56:30.315Z,13.83
2018-09-20T10:58:58.594Z,13.73
2018-09-20T11:01:26.577Z,7.90
2018-09-20T11:03:54.745Z,38.30
2018-09-20T11:06:23.009Z,21.00
2018-09-20T11:08:51.196Z,6.87
2018-09-20T11:11:19.274Z,7.97
2018-09-20T11:13:47.746Z,15.90
2018-09-20T11:16:15.788Z,11.97
2018-09-20T11:18:43.703Z,11.57
2018-09-20T11:21:11.932Z,14.83
2018-09-20T11:23:39.941Z,19.93
2018-09-20T11:26:07.904Z,12.13
2018-09-20T11:28:36.080Z,23.73
2018-09-20T11:31:04.019Z,14.13
2018-09-20T11:33:32.009Z,14.33
2018-09-20T11:36:00.135Z,16.80
2018-09-20T11:38:28.111Z,8.33
2018-09-20T11:40:56.056Z,31.30
2018-09-20T11:43:24.515Z,15.73
2018-09-20T11:45:52.478Z,20.63
2018-09-20T11:48:20.987Z,24.57
2018-09-20T11:50:49.237Z,32.30
2018-09-20T11:53:17.202Z,22.97
2018-09-20T11:55:45.167Z,16.57
2018-09-20T11:58:13.361Z,16.47
2018-09-20T12:00:41.329Z,14.60
2018-09-20T12:03:09.321Z,17.97
2018-09-20T12:05:37.463Z,22.23
2018-09-20T12:08:05.629Z,22.33
2018-09-20T12:10:33.617Z,8.37
2018-09-20T12:13:01.555Z,11.93
2018-09-20T12:15:29.684Z,17.97
2018-09-20T12:17:57.616Z,33.33
2018-09-20T12:20:25.573Z,44.80
2018-09-20T12:22:53.896Z,29.43
2018-09-20T12:25:22.047Z,15.63
2018-09-20T12:27:50.013Z,13.83
2018-09-20T12:30:17.950Z,19.33
2018-09-20T12:32:46.052Z,11.43
2018-09-20T12:35:14.022Z,10.80
2018-09-20T12:37:42.083Z,14.63
2018-09-20T12:40:10.065Z,15.73
2018-09-20T12:42:38.922Z,17.33
2018-09-20T12:45:07.129Z,15.17
2018-09-20T12:47:35.306Z,10.60
2018-09-20T12:50:03.347Z,8.30
2018-09-20T12:52:31.274Z,15.93
2018-09-20T12:54:59.639Z,11.33
2018-09-20T12:57:27.572Z,10.70
2018-09-20T12:59:55.657Z,10.07
2018-09-20T13:02:23.880Z,16.77
2018-09-20T13:04:51.934Z,9.97
2018-09-20T13:07:20.139Z,17.25
2018-09-20T13:09:48.543Z,21.23
2018-09-20T13:12:16.733Z,19.33
2018-09-20T13:14:45.134Z,14.73
2018-09-20T13:17:13.307Z,13.70
2018-09-20T13:19:41.261Z,11.30
2018-09-20T13:22:09.349Z,13.07
2018-09-20T13:24:37.632Z,16.33
2018-09-20T13:27:05.652Z,20.00
2018-09-20T13:29:33.592Z,7.93
2018-09-20T13:32:01.771Z,12.53
2018-09-20T13:34:29.728Z,13.97
2018-09-20T13:36:57.657Z,13.17
2018-09-20T13:39:25.853Z,13.90
2018-09-20T13:41:53.805Z,9.33
2018-09-20T13:44:22.712Z,11.03
2018-09-20T13:46:51.085Z,10.48
2018-09-20T13:49:19.136Z,9.70
2018-09-20T13:51:47.067Z,8.28
2018-09-20T13:54:15.311Z,13.80
2018-09-20T13:56:43.251Z,13.18
2018-09-20T13:59:11.194Z,16.67
2018-09-20T14:01:39.539Z,13.75
2018-09-20T14:04:07.495Z,14.07
2018-09-20T14:06:35.467Z,18.23
2018-09-20T14:09:05.036Z,9.57
2018-09-20T14:11:32.974Z,11.75
2018-09-20T14:14:01.275Z,9.28
2018-09-20T14:16:29.181Z,11.15
2018-09-20T14:18:57.186Z,30.00
2018-09-20T14:21:25.120Z,15.45
2018-09-20T14:23:53.346Z,10.43
2018-09-20T14:26:21.394Z,7.37
2018-09-20T14:28:49.359Z,10.30
2018-09-20T14:31:17.520Z,11.55
2018-09-20T14:33:45.489Z,14.75
2018-09-20T14:36:13.487Z,11.88
2018-09-20T14:38:41.479Z,6.92
2018-09-20T14:41:09.975Z,11.75
2018-09-20T14:43:38.135Z,9.15
2018-09-20T14:46:07.037Z,14.87
2018-09-20T14:48:35.114Z,9.13
2018-09-20T14:51:03.426Z,8.57
2018-09-20T14:53:31.388Z,7.78
2018-09-20T14:55:59.563Z,8.73
2018-09-20T14:58:27.506Z,10.93
2018-09-20T15:00:55.448Z,9.08
2018-09-20T15:03:23.690Z,25.65
2018-09-20T15:05:51.663Z,12.95
2018-09-20T15:08:19.651Z,15.98
2018-09-20T15:10:48.020Z,12.40
2018-09-20T15:13:16.313Z,8.63
2018-09-20T15:15:44.262Z,7.90
2018-09-20T15:18:12.525Z,9.53
2018-09-20T15:20:40.519Z,7.30
2018-09-20T15:23:08.454Z,10.67
2018-09-20T15:25:36.793Z,10.55
2018-09-20T15:28:04.822Z,8.20
2018-09-20T15:30:32.762Z,6.78
2018-09-20T15:33:00.723Z,10.07
2018-09-20T15:35:28.792Z,19.27
2018-09-20T15:37:57.071Z,14.03
2018-09-20T15:40:25.033Z,9.83
2018-09-20T15:42:53.006Z,11.48
2018-09-20T15:45:21.321Z,9.93
2018-09-20T15:47:49.736Z,9.33
2018-09-20T15:50:17.676Z,9.08
2018-09-20T15:52:45.846Z,7.35
2018-09-20T15:55:13.880Z,7.03
2018-09-20T15:57:41.985Z,7.97
2018-09-20T16:00:09.961Z,10.80
2018-09-20T16:02:37.922Z,14.20
2018-09-20T16:05:05.901Z,15.20
2018-09-20T16:07:33.868Z,9.40
2018-09-20T16:10:01.826Z,11.33
2018-09-20T16:12:29.784Z,13.70
2018-09-20T16:15:01.276Z,16.40
2018-09-20T16:17:29.216Z,11.48
2018-09-20T16:19:57.165Z,18.37
2018-09-20T16:22:25.384Z,12.88
2018-09-20T16:24:53.673Z,23.12
2018-09-20T16:27:21.686Z,12.50
2018-09-20T16:30:10.099Z,8.13
2018-09-20T16:32:49.307Z,9.37
2018-09-20T16:35:29.556Z,13.80
2018-09-20T16:38:14.805Z,11.60
2018-09-20T16:40:44.578Z,10.50
2018-09-20T16:43:12.615Z,15.50
2018-09-20T16:45:44.181Z,10.37
2018-09-20T16:48:12.162Z,10.60
2018-09-20T16:50:40.198Z,14.77
2018-09-20T16:53:08.228Z,8.03
2018-09-20T16:55:36.132Z,11.00
2018-09-20T16:58:04.431Z,12.00
2018-09-20T17:00:32.384Z,9.43
2018-09-20T17:03:00.366Z,7.93
2018-09-20T17:05:28.441Z,15.03
2018-09-20T17:07:56.424Z,14.53
2018-09-20T17:10:24.421Z,13.43
2018-09-20T17:12:52.380Z,8.63
2018-09-20T17:15:20.436Z,12.10
2018-09-20T17:17:48.535Z,14.67
2018-09-20T17:20:16.536Z,11.50
2018-09-20T17:22:44.492Z,22.13
2018-09-20T17:25:12.448Z,14.60
2018-09-20T17:27:40.432Z,26.40
2018-09-20T17:30:08.463Z,24.60
2018-09-20T17:32:36.395Z,19.17
2018-09-20T17:35:04.433Z,20.90
2018-09-20T17:37:32.976Z,16.53
2018-09-20T17:40:01.359Z,21.97
2018-09-20T17:42:29.676Z,17.17
2018-09-20T17:44:57.663Z,24.27
2018-09-20T17:47:25.687Z,21.87
2018-09-20T17:49:53.724Z,22.63
2018-09-20T17:52:22.859Z,20.03
2018-09-20T17:54:50.951Z,19.93
2018-09-20T17:57:19.282Z,22.03
2018-09-20T17:59:47.252Z,22.33
2018-09-20T18:02:15.258Z,20.57
2018-09-20T18:04:43.290Z,15.83
2018-09-20T18:07:11.262Z,29.13
2018-09-20T18:09:39.231Z,21.90
2018-09-20T18:12:10.283Z,19.47
2018-09-20T18:14:38.222Z,25.43
2018-09-20T18:17:06.184Z,19.83
2018-09-20T18:19:34.234Z,15.20
2018-09-20T18:22:02.223Z,21.77
2018-09-20T18:24:30.190Z,14.70
2018-09-20T18:26:58.117Z,18.00
2018-09-20T18:29:26.774Z,23.33
2018-09-20T18:31:54.750Z,16.27
2018-09-20T18:34:22.844Z,22.57
2018-09-20T18:36:50.755Z,16.80
2018-09-20T18:39:18.720Z,21.47
2018-09-20T18:41:46.701Z,20.10
2018-09-20T18:44:14.710Z,18.40
2018-09-20T18:46:42.743Z,16.17
2018-09-20T18:49:10.742Z,24.17
2018-09-20T18:51:38.692Z,17.70
2018-09-20T18:54:06.693Z,20.57
2018-09-20T18:56:34.659Z,22.93
2018-09-20T18:59:02.942Z,19.60
2018-09-20T19:01:32.928Z,27.13
2018-09-20T19:04:00.978Z,21.27
2018-09-20T19:06:28.912Z,16.87
2018-09-20T19:08:56.964Z,22.83
2018-09-20T19:11:24.993Z,20.17
2018-09-20T19:13:52.953Z,17.23
2018-09-20T19:16:20.979Z,19.33
2018-09-20T19:18:48.939Z,20.77
2018-09-20T19:21:16.827Z,13.97
2018-09-20T19:23:44.744Z,31.03
2018-09-20T19:26:12.857Z,17.63
2018-09-20T19:28:40.892Z,26.47
2018-09-20T19:31:08.871Z,17.73
2018-09-20T19:33:36.906Z,19.97
2018-09-20T19:36:04.939Z,14.77
2018-09-20T19:38:32.877Z,22.17
2018-09-20T19:41:00.975Z,18.27
2018-09-20T19:43:29.003Z,21.00
2018-09-20T19:45:57.017Z,23.50
2018-09-20T19:48:28.213Z,18.97
2018-09-20T19:50:56.166Z,24.10
2018-09-20T19:53:24.131Z,23.47
2018-09-20T19:55:52.061Z,18.40
2018-09-20T19:58:20.039Z,19.70
2018-09-20T20:00:47.994Z,14.67
2018-09-20T20:03:16.135Z,18.83
2018-09-20T20:05:44.164Z,18.30
2018-09-20T20:08:12.533Z,17.50
2018-09-20T20:10:40.650Z,23.07
2018-09-20T20:13:08.627Z,20.07
2018-09-20T20:15:36.684Z,18.83
2018-09-20T20:18:04.725Z,16.63
2018-09-20T20:20:32.899Z,24.83
2018-09-20T20:23:00.868Z,25.20
2018-09-20T20:25:28.835Z,23.50
2018-09-20T20:27:57.004Z,22.23
2018-09-20T20:30:25.052Z,23.50
2018-09-20T20:32:53.057Z,23.03
2018-09-20T20:35:21.124Z,17.30
2018-09-20T20:37:49.148Z,21.73
2018-09-20T20:40:17.101Z,22.33
2018-09-20T20:42:45.069Z,29.13
2018-09-20T20:45:13.042Z,24.10
2018-09-20T20:47:41.041Z,20.57
2018-09-20T20:50:08.985Z,24.47
2018-09-20T20:52:36.948Z,26.47
2018-09-20T20:55:04.979Z,17.37
2018-09-20T20:57:32.955Z,19.63
2018-09-20T21:00:00.945Z,20.30
2018-09-20T21:02:29.069Z,22.40
2018-09-20T21:04:57.072Z,27.03
2018-09-20T21:07:25.092Z,24.80
2018-09-20T21:09:53.104Z,25.87
2018-09-20T21:12:21.280Z,28.27
2018-09-20T21:14:49.273Z,21.70
2018-09-20T21:17:17.476Z,19.03
2018-09-20T21:19:45.501Z,17.80
2018-09-20T21:22:13.467Z,16.30
2018-09-20T21:24:41.553Z,19.73
2018-09-20T21:27:09.513Z,17.03
2018-09-20T21:29:37.523Z,19.33
2018-09-20T21:32:05.550Z,20.07
2018-09-20T21:34:33.487Z,18.80
2018-09-20T21:37:01.419Z,16.47
2018-09-20T21:39:29.398Z,19.30
2018-09-20T21:41:57.364Z,23.43
2018-09-20T21:44:25.402Z,22.03
2018-09-20T21:46:53.433Z,15.57
2018-09-20T21:49:21.449Z,19.87
2018-09-20T21:51:49.417Z,19.83
2018-09-20T21:54:17.492Z,21.83
2018-09-20T21:56:45.428Z,21.27
2018-09-20T21:59:13.366Z,21.43
2018-09-20T22:01:47.230Z,19.23
2018-09-20T22:04:15.199Z,19.97
2018-09-20T22:06:43.167Z,15.77
2018-09-20T22:09:12.470Z,17.53
2018-09-20T22:11:40.935Z,17.23
2018-09-20T22:14:08.941Z,20.13
2018-09-20T22:16:37.516Z,22.03
2018-09-20T22:19:05.686Z,22.10
2018-09-20T22:21:33.967Z,16.93
2018-09-20T22:24:01.932Z,16.07
2018-09-20T22:26:29.863Z,25.53
2018-09-20T22:28:57.839Z,19.47
2018-09-20T22:31:25.848Z,17.53
2018-09-20T22:33:53.799Z,19.57
2018-09-20T22:36:21.767Z,15.87
2018-09-20T22:38:49.759Z,17.70
2018-09-20T22:41:18.123Z,21.17
2018-09-20T22:43:46.302Z,19.17
2018-09-20T22:46:14.371Z,17.60
2018-09-20T22:48:42.442Z,16.73
2018-09-20T22:51:11.028Z,14.47
2018-09-20T22:53:39.379Z,15.13
2018-09-20T22:56:07.467Z,17.43
2018-09-20T22:58:35.661Z,15.07
2018-09-20T23:01:03.632Z,18.30
2018-09-20T23:03:31.695Z,14.40
2018-09-20T23:05:59.883Z,18.47
2018-09-20T23:08:27.914Z,13.77
2018-09-20T23:10:55.851Z,16.20
2018-09-20T23:13:23.892Z,15.07
2018-09-20T23:15:51.855Z,14.63
2018-09-20T23:18:19.857Z,11.87
2018-09-20T23:20:47.843Z,15.33
2018-09-20T23:23:15.864Z,17.07
2018-09-20T23:25:43.835Z,15.43
2018-09-20T23:28:11.802Z,14.57
2018-09-20T23:30:39.751Z,16.90
2018-09-20T23:33:07.774Z,17.00
2018-09-20T23:35:35.816Z,14.13
2018-09-20T23:38:03.792Z,11.80
2018-09-20T23:40:31.746Z,14.13
2018-09-20T23:42:59.787Z,12.83
2018-09-20T23:45:27.796Z,11.53
2018-09-20T23:47:55.871Z,15.90
2018-09-20T23:50:23.939Z,14.83
2018-09-20T23:52:51.883Z,17.67
2018-09-20T23:55:19.832Z,14.63
2018-09-20T23:57:47.847Z,14.67
